createdAt,value
2024-04-30T00:05:07.391Z,16.27
2024-04-30T00:10:12.454Z,16.16
2024-04-30T00:15:18.190Z,16.09
2024-04-30T00:20:25.667Z,15.94
2024-04-30T00:25:30.482Z,15.97
2024-04-30T00:30:35.313Z,15.93
2024-04-30T00:35:42.619Z,15.82
2024-04-30T00:40:47.501Z,15.74
2024-04-30T00:45:52.319Z,15.68
2024-04-30T00:51:00.138Z,15.67
2024-04-30T00:56:05.482Z,15.52
2024-04-30T01:01:10.243Z,15.51
2024-04-30T01:06:17.621Z,15.42
2024-04-30T01:11:22.556Z,15.36
2024-04-30T01:16:27.235Z,15.29
2024-04-30T01:21:34.599Z,15.17
2024-04-30T01:26:41.896Z,15.21
2024-04-30T01:31:46.537Z,15.17
2024-04-30T01:36:51.200Z,15.09
2024-04-30T01:41:58.565Z,15.11
2024-04-30T01:47:03.307Z,15.05
2024-04-30T01:52:08.575Z,14.90
2024-04-30T01:57:15.934Z,15.06
2024-04-30T02:02:20.723Z,15.03
2024-04-30T02:07:25.845Z,14.96
2024-04-30T02:12:33.196Z,14.81
2024-04-30T02:17:38.047Z,14.74
2024-04-30T02:22:42.848Z,14.69
2024-04-30T02:27:50.351Z,14.69
2024-04-30T02:33:10.737Z,14.56
2024-04-30T02:38:15.477Z,14.63
2024-04-30T02:43:22.822Z,14.57
2024-04-30T02:48:28.678Z,14.39
2024-04-30T02:53:33.438Z,14.44
2024-04-30T02:58:41.209Z,14.39
2024-04-30T03:03:46.638Z,14.33
2024-04-30T03:08:51.674Z,14.36
2024-04-30T03:13:58.993Z,14.32
2024-04-30T03:19:03.748Z,14.20
2024-04-30T03:24:08.908Z,14.23
2024-04-30T03:29:16.646Z,14.06
2024-04-30T03:34:22.489Z,13.93
2024-04-30T03:39:27.387Z,13.92
2024-04-30T03:44:34.690Z,13.76
2024-04-30T03:49:40.854Z,13.73
2024-04-30T03:54:45.518Z,13.76
2024-04-30T03:59:52.873Z,13.88
2024-04-30T04:04:57.748Z,13.79
2024-04-30T04:10:02.578Z,14.02
2024-04-30T04:15:11.060Z,13.94
2024-04-30T04:20:15.855Z,14.16
2024-04-30T04:25:20.625Z,14.14
2024-04-30T04:30:27.983Z,14.21
2024-04-30T04:35:32.671Z,14.19
2024-04-30T04:40:37.412Z,14.34
2024-04-30T04:45:44.841Z,14.42
2024-04-30T04:50:49.683Z,14.55
2024-04-30T04:55:54.387Z,14.44
2024-04-30T05:01:01.884Z,14.62
2024-04-30T05:06:07.276Z,14.81
2024-04-30T05:11:15.357Z,14.86
2024-04-30T05:16:22.792Z,15.27
2024-04-30T05:21:27.716Z,15.32
2024-04-30T05:26:32.412Z,15.51
2024-04-30T05:31:42.467Z,15.74
2024-04-30T05:36:47.224Z,15.85
2024-04-30T05:41:51.873Z,16.11
2024-04-30T05:46:59.767Z,16.37
2024-04-30T05:52:04.656Z,16.72
2024-04-30T05:57:09.373Z,16.88
2024-04-30T06:02:16.688Z,17.10
2024-04-30T06:07:21.576Z,17.42
2024-04-30T06:12:26.415Z,17.52
2024-04-30T06:17:33.889Z,17.74
2024-04-30T06:22:38.720Z,17.94
2024-04-30T06:27:43.487Z,18.37
2024-04-30T06:32:50.968Z,18.74
2024-04-30T06:37:56.335Z,19.27
2024-04-30T06:43:01.065Z,19.80
2024-04-30T06:48:11.048Z,20.03
2024-04-30T06:53:15.955Z,20.68
2024-04-30T06:58:20.696Z,21.28
2024-04-30T07:03:28.010Z,21.78
2024-04-30T07:08:32.764Z,22.48
2024-04-30T07:13:37.512Z,22.91
2024-04-30T07:18:47.017Z,23.82
2024-04-30T07:23:51.739Z,24.74
2024-04-30T07:28:56.526Z,25.65
2024-04-30T07:34:04.520Z,26.06
2024-04-30T07:39:09.350Z,26.85
2024-04-30T07:44:14.270Z,27.29
2024-04-30T07:49:21.678Z,27.57
2024-04-30T07:54:26.468Z,28.01
2024-04-30T07:59:31.189Z,28.66
2024-04-30T08:04:38.931Z,29.44
2024-04-30T08:09:44.697Z,30.50
2024-04-30T08:14:49.611Z,31.23
2024-04-30T08:19:57.196Z,30.76
2024-04-30T08:25:01.904Z,30.94
2024-04-30T08:30:06.904Z,30.53
2024-04-30T08:35:14.742Z,30.34
2024-04-30T08:40:19.585Z,31.28
2024-04-30T08:45:25.639Z,32.08
2024-04-30T08:50:35.380Z,30.66
2024-04-30T08:55:43.088Z,32.16
2024-04-30T09:00:48.327Z,32.29
2024-04-30T09:05:57.216Z,32.35
2024-04-30T09:11:01.999Z,31.66
2024-04-30T09:16:10.520Z,32.27
2024-04-30T09:21:26.485Z,31.56
2024-04-30T09:26:31.199Z,31.83
2024-04-30T09:31:39.998Z,32.13
2024-04-30T09:36:47.526Z,32.60
2024-04-30T09:41:53.382Z,31.43
2024-04-30T09:46:58.561Z,31.74
2024-04-30T09:52:07.197Z,32.13
2024-04-30T09:57:14.302Z,32.60
2024-04-30T10:02:21.000Z,33.66
2024-04-30T10:07:29.748Z,31.72
2024-04-30T10:12:34.474Z,33.27
2024-04-30T10:17:43.572Z,32.94
2024-04-30T10:22:51.099Z,32.58
2024-04-30T10:28:07.920Z,32.03
2024-04-30T10:33:12.925Z,30.91
2024-04-30T10:38:20.459Z,29.48
2024-04-30T10:43:25.734Z,29.44
2024-04-30T10:48:30.571Z,29.85
2024-04-30T10:53:38.203Z,29.87
2024-04-30T10:58:54.280Z,30.87
2024-04-30T11:04:10.019Z,30.63
2024-04-30T11:09:18.809Z,30.43
2024-04-30T11:14:24.713Z,30.60
2024-04-30T11:19:29.494Z,31.70
2024-04-30T11:24:37.214Z,30.49
2024-04-30T11:29:42.103Z,31.43
2024-04-30T11:34:49.648Z,31.49
2024-04-30T11:39:57.301Z,31.16
2024-04-30T11:45:03.558Z,31.14
2024-04-30T11:50:09.545Z,30.76
2024-04-30T11:55:17.251Z,31.23
2024-04-30T12:00:22.774Z,31.23
2024-04-30T12:05:27.540Z,32.20
2024-04-30T12:10:36.471Z,32.38
2024-04-30T12:15:41.208Z,31.33
2024-04-30T12:20:45.908Z,31.89
2024-04-30T12:25:53.312Z,31.87
2024-04-30T12:30:58.061Z,31.58
2024-04-30T12:36:02.820Z,31.30
2024-04-30T12:41:10.210Z,30.21
2024-04-30T12:46:14.903Z,30.52
2024-04-30T12:51:19.716Z,30.04
2024-04-30T12:56:27.113Z,30.26
2024-04-30T13:01:31.945Z,28.50
2024-04-30T13:06:41.350Z,28.29
2024-04-30T13:11:48.727Z,27.67
2024-04-30T13:16:53.428Z,27.34
2024-04-30T13:21:58.110Z,27.07
2024-04-30T13:27:05.438Z,27.29
2024-04-30T13:32:10.410Z,27.37
2024-04-30T13:37:15.315Z,27.37
2024-04-30T13:42:22.803Z,27.33
2024-04-30T13:47:27.773Z,27.33
2024-04-30T13:52:34.975Z,27.26
2024-04-30T13:57:44.535Z,26.68
2024-04-30T14:02:49.465Z,26.63
2024-04-30T14:07:54.314Z,26.48
2024-04-30T14:13:02.396Z,26.52
2024-04-30T14:18:07.998Z,26.43
2024-04-30T14:23:12.903Z,26.23
2024-04-30T14:28:24.298Z,26.51
2024-04-30T14:33:29.104Z,26.16
2024-04-30T14:38:34.150Z,26.37
2024-04-30T14:43:41.736Z,26.03
2024-04-30T14:48:46.526Z,25.96
2024-04-30T14:53:51.287Z,26.11
2024-04-30T14:58:58.675Z,25.89
2024-04-30T15:04:03.495Z,25.78
2024-04-30T15:09:11.440Z,25.63
2024-04-30T15:14:18.806Z,25.45
2024-04-30T15:19:23.596Z,25.69
2024-04-30T15:24:28.492Z,25.46
2024-04-30T15:29:35.988Z,25.44
2024-04-30T15:34:42.222Z,25.78
2024-04-30T15:39:47.837Z,25.66
2024-04-30T15:44:55.218Z,25.86
2024-04-30T15:49:59.901Z,25.65
2024-04-30T15:55:04.703Z,25.54
2024-04-30T16:00:13.306Z,25.30
2024-04-30T16:05:18.028Z,25.36
2024-04-30T16:10:22.899Z,25.40
2024-04-30T16:15:31.147Z,25.24
2024-04-30T16:20:37.762Z,25.31
2024-04-30T16:25:44.905Z,25.35
2024-04-30T16:30:52.692Z,25.25
2024-04-30T16:35:57.482Z,25.11
2024-04-30T16:41:02.208Z,25.13
2024-04-30T16:46:09.611Z,25.07
2024-04-30T16:51:16.252Z,24.92
2024-04-30T16:56:21.108Z,25.06
2024-04-30T17:01:28.564Z,24.33
2024-04-30T17:06:33.823Z,24.29
2024-04-30T17:11:38.664Z,23.92
2024-04-30T17:16:46.542Z,24.15
2024-04-30T17:21:51.703Z,24.33
2024-04-30T17:26:57.561Z,24.11
2024-04-30T17:32:05.119Z,23.95
2024-04-30T17:37:10.215Z,24.04
2024-04-30T17:42:15.069Z,23.83
2024-04-30T17:47:22.738Z,24.03
2024-04-30T17:52:31.164Z,23.96
2024-04-30T17:57:37.788Z,23.90
2024-04-30T18:02:45.153Z,23.91
2024-04-30T18:07:49.851Z,23.88
2024-04-30T18:12:54.597Z,23.81
2024-04-30T18:18:02.117Z,23.92
2024-04-30T18:23:07.207Z,23.88
2024-04-30T18:28:11.921Z,23.70
2024-04-30T18:33:19.485Z,23.57
2024-04-30T18:38:24.331Z,23.58
2024-04-30T18:43:29.041Z,23.59
2024-04-30T18:48:36.570Z,23.52
2024-04-30T18:53:42.145Z,23.46
2024-04-30T18:58:47.714Z,23.51
2024-04-30T19:03:55.317Z,23.49
2024-04-30T19:09:00.141Z,23.47
2024-04-30T19:14:04.816Z,23.37
2024-04-30T19:19:18.135Z,23.28
2024-04-30T19:24:24.613Z,23.13
2024-04-30T19:29:30.309Z,23.16
2024-04-30T19:34:37.921Z,23.11
2024-04-30T19:39:42.842Z,23.02
2024-04-30T19:44:47.595Z,22.88
2024-04-30T19:49:55.073Z,22.81
2024-04-30T19:55:00.085Z,22.72
2024-04-30T20:00:05.999Z,22.59
2024-04-30T20:05:13.803Z,22.63
2024-04-30T20:10:18.805Z,22.46
2024-04-30T20:15:23.603Z,22.41
2024-04-30T20:20:30.931Z,22.25
2024-04-30T20:25:35.684Z,22.21
2024-04-30T20:30:40.501Z,21.98
2024-04-30T20:35:47.924Z,21.93
2024-04-30T20:40:52.852Z,21.77
2024-04-30T20:45:57.917Z,21.66
2024-04-30T20:51:06.437Z,21.55
2024-04-30T20:56:11.591Z,21.59
2024-04-30T21:01:17.658Z,21.33
2024-04-30T21:06:25.159Z,21.34
2024-04-30T21:11:30.213Z,21.21
2024-04-30T21:16:39.453Z,21.06
2024-04-30T21:21:46.958Z,20.90
2024-04-30T21:26:51.807Z,20.72
2024-04-30T21:31:56.707Z,20.62
2024-04-30T21:37:04.286Z,20.42
2024-04-30T21:42:09.121Z,20.44
2024-04-30T21:47:15.563Z,20.46
2024-04-30T21:52:23.032Z,20.40
2024-04-30T21:57:27.876Z,20.43
2024-04-30T22:02:32.619Z,20.52
2024-04-30T22:07:40.095Z,20.32
2024-04-30T22:12:44.845Z,20.49
2024-04-30T22:17:49.890Z,20.38
2024-04-30T22:22:57.357Z,20.31
2024-04-30T22:28:02.163Z,20.34
2024-04-30T22:33:07.221Z,20.33
2024-04-30T22:38:14.599Z,20.07
2024-04-30T22:43:19.349Z,20.06
2024-04-30T22:48:24.287Z,19.78
2024-04-30T22:53:40.722Z,19.72
2024-04-30T22:58:52.342Z,19.82
2024-04-30T23:03:57.204Z,19.71
2024-04-30T23:09:04.831Z,19.65
2024-04-30T23:14:09.605Z,19.48
2024-04-30T23:19:14.378Z,19.35
2024-04-30T23:24:21.905Z,19.33
2024-04-30T23:29:27.944Z,19.29
2024-04-30T23:34:32.991Z,19.10
2024-04-30T23:39:40.517Z,19.02
2024-04-30T23:44:45.334Z,18.84
2024-04-30T23:49:50.071Z,18.81
2024-04-30T23:54:57.570Z,18.77
